Terminal Aerodrome Forecast
Issued by NWS

Home | Current Version | Previous Version | Text Only | Print | Product List | Glossary On
Versions: 1 2 3 4 5 6 7 8 9 10 11 12 13 14 15 16 17 18 19 20 21 22 23 24 25 26
000
FTUS43 KGRR 240540
TAFAZO
TAF
KAZO 240540Z 2406/2506 17007KT P6SM VCSH SCT009 BKN035
      TEMPO 2406/2409 BKN009
     FM240900 18008KT 6SM BR VCSH BKN009
     FM241600 22010G20KT P6SM VCSH BKN025
     FM242000 22012G21KT P6SM VCTS BKN035CB
     FM250000 23012KT P6SM VCSH BKN040=

USA.gov is the U.S. government's official web portal to all federal, state and local government web resources and services.